Meath Environmental Platform

Observations for Trim Market St

Time AQI Temp °C Hum % Pres Pa CO μg/m³ H₂S μg/m³ NO μg/m³ NO₂ μg/m³ O₃ μg/m³ SO₂ μg/m³ PM1 μg/m³ PM2.5 μg/m³ PM10 μg/m³
Tuesday 25 August 2026
16:49 3 22.5 53 56,668 0 3.42 1.18 31.1 97.39 0 4.99 7.42 10.44
16:46 3 22.6 53 56,266 0 0 1.17 49.07 51.48 0 4.99 7.96 10.45
16:45 3 22.6 52 56,225 0 0 1.12 20.75 75.57 0 6.41 8.48 11.91
16:42 3 22.6 52 56,169 0 0 1.09 20.03 74.24 0 4.28 7.97 11.18
16:41 3 22.7 52 56,136 0 0.32 1.16 24.4 80.48 0 4.99 7.98 11.92
16:40 3 22.7 52 56,084 0 0 1.16 20.7 83.02 0 4.28 7.47 10.46
16:32 3 22.8 52 55,901 0 1.62 1.07 34.2 72.13 0 4.99 8.53 11.21
16:12 3 23.3 49 57,005 0 1.15 0.9 18.93 91.7 0 4.99 7.12 11.27
16:11 3 23.3 49 57,124 0 2.32 0.9 21.58 82.76 0 3.56 6.6 9.77
16:10 3 23.4 49 57,371 0 1.97 0.97 21.17 91.73 0 4.28 6.61 9.03
16:09 3 23.4 49 57,621 0 2.16 0.99 19.8 86.35 0 4.28 6.1 7.53
16:08 3 23.4 49 57,889 0 1.92 1.06 20.45 87.62 0 5.7 8.17 10.53
16:07 3 23.5 49 58,124 0 2.21 1.09 19.8 82 0 3.56 7.66 9.78
16:06 3 23.5 49 58,347 0 2.92 1.08 26.3 78.09 0 3.56 7.15 9.03
16:05 3 23.6 49 58,605 0 3.24 1.1 26.22 77.09 0 4.99 8.19 10.54
16:04 3 23.6 49 58,961 0 2.89 1.08 23.45 92.36 0 4.99 7.68 10.54
16:03 3 23.6 48 59,348 0 1.94 1.07 19.52 78.79 0 4.28 7.68 9.79
16:02 3 23.7 48 59,713 0 2.44 1.08 19.36 85.46 0 6.41 9.76 13.57
16:01 3 23.8 48 60,128 0 3.44 1.09 25.05 90.47 0 5.7 9.25 13.58
16:00 3 23.8 48 60,493 0 2.89 1.09 27.74 83.65 0 4.28 6.68 8.28